Time;durP1;ratioP1;P1;durP2;ratioP2;P2;SDS_P1;SDS_P2;PMS_P1;PMS_P2;Temp;Humidity;BMP_temperature;BMP_pressure;BME280_temperature;BME280_humidity;BME280_pressure;Samples;Min_cycle;Max_cycle;Signal;HPM_P1;HPM_P2
2021/11/21 00:02:08;;;;;;;22.85;11.32;;;;;;;8.72;100.00;100342.47;4973347;28;20046;-81
2021/11/21 00:04:35;;;;;;;20.83;11.18;;;;;;;8.73;100.00;100333.66;4974589;28;20042;-82
2021/11/21 00:07:02;;;;;;;31.67;12.13;;;;;;;8.77;100.00;100335.38;4955025;28;20050;-81
2021/11/21 00:09:29;;;;;;;20.65;10.55;;;;;;;8.69;100.00;100339.91;4943134;28;20072;-81
2021/11/21 00:11:56;;;;;;;23.98;12.65;;;;;;;8.72;100.00;100339.84;4961180;28;20043;-80
2021/11/21 00:14:23;;;;;;;23.35;12.23;;;;;;;8.76;100.00;100332.75;4990876;28;20138;-81
2021/11/21 00:16:52;;;;;;;19.55;12.15;;;;;;;8.74;100.00;100325.75;5024574;28;20042;-81
2021/11/21 00:19:19;;;;;;;23.23;11.23;;;;;;;8.66;100.00;100332.03;4991620;28;20046;-82
2021/11/21 00:21:46;;;;;;;22.95;12.35;;;;;;;8.70;100.00;100325.84;4976707;28;20097;-82
2021/11/21 00:24:12;;;;;;;21.40;12.10;;;;;;;8.69;100.00;100321.47;4974716;28;20491;-82
2021/11/21 00:26:39;;;;;;;23.88;12.05;;;;;;;8.70;100.00;100321.44;4966330;28;20045;-80
2021/11/21 00:29:05;;;;;;;24.85;12.95;;;;;;;8.69;100.00;100316.19;4971928;28;20385;-82
2021/11/21 00:31:32;;;;;;;24.40;13.27;;;;;;;8.67;100.00;100312.72;4975181;28;20499;-81
2021/11/21 00:33:59;;;;;;;24.55;12.73;;;;;;;8.62;100.00;100312.81;4963294;28;20050;-81
2021/11/21 00:36:26;;;;;;;25.98;12.70;;;;;;;8.62;100.00;100304.03;5006263;28;20102;-81
2021/11/21 00:38:52;;;;;;;22.05;12.05;;;;;;;8.57;100.00;100309.38;4990237;28;20046;-81
2021/11/21 00:41:19;;;;;;;24.35;11.70;;;;;;;8.56;100.00;100291.84;4991893;28;20038;-81
2021/11/21 00:43:46;;;;;;;26.90;13.90;;;;;;;8.58;100.00;100305.00;5005187;28;20133;-83
2021/11/21 00:46:12;;;;;;;26.25;13.73;;;;;;;8.60;100.00;100297.94;4990884;28;20065;-81
2021/11/21 00:48:39;;;;;;;25.20;12.55;;;;;;;8.55;100.00;100295.38;4974089;28;20050;-81
2021/11/21 00:51:06;;;;;;;24.52;14.07;;;;;;;8.58;100.00;100294.47;5008736;28;20050;-82
2021/11/21 00:53:33;;;;;;;24.58;13.68;;;;;;;8.56;100.00;100290.97;4939748;28;20042;-81
2021/11/21 00:56:04;;;;;;;25.83;13.10;;;;;;;8.55;100.00;100286.59;4957206;28;20492;-80
2021/11/21 00:58:32;;;;;;;27.13;13.20;;;;;;;8.55;100.00;100290.09;4985949;28;20423;-81
2021/11/21 01:00:59;;;;;;;25.23;13.20;;;;;;;8.61;100.00;100289.13;4989031;28;20054;-81
2021/11/21 01:03:27;;;;;;;25.33;12.82;;;;;;;8.54;100.00;100291.00;4973575;28;20049;-80
2021/11/21 01:05:55;;;;;;;27.48;13.68;;;;;;;8.58;100.00;100291.84;5007836;28;20050;-79
2021/11/21 01:08:23;;;;;;;24.63;13.48;;;;;;;8.59;100.00;100283.91;4973995;28;20046;-81
2021/11/21 01:10:53;;;;;;;23.45;12.60;;;;;;;8.57;100.00;100282.16;4975267;28;20081;-80
2021/11/21 01:13:20;;;;;;;23.27;13.65;;;;;;;8.54;100.00;100291.00;4990366;28;20053;-81
2021/11/21 01:15:47;;;;;;;25.83;13.52;;;;;;;8.54;100.00;100279.59;4974927;28;20051;-81
2021/11/21 01:18:15;;;;;;;25.00;12.98;;;;;;;8.49;100.00;100282.31;4989758;28;20046;-80
2021/11/21 01:20:42;;;;;;;22.48;12.00;;;;;;;8.51;100.00;100277.03;4948442;28;20057;-81
2021/11/21 01:23:12;;;;;;;25.92;13.65;;;;;;;8.52;100.00;100271.75;4955398;28;20050;-82
2021/11/21 01:25:43;;;;;;;25.88;14.02;;;;;;;8.54;100.00;100269.94;4971072;28;20054;-81
2021/11/21 01:28:11;;;;;;;30.30;16.10;;;;;;;8.50;100.00;100264.78;4990428;28;20049;-81
2021/11/21 01:30:38;;;;;;;29.55;16.25;;;;;;;8.48;100.00;100262.16;4990210;28;20141;-83
2021/11/21 01:33:04;;;;;;;25.80;13.52;;;;;;;8.39;100.00;100260.56;4973832;28;20046;-82
2021/11/21 01:35:31;;;;;;;28.02;14.00;;;;;;;8.44;100.00;100252.59;5006007;28;20046;-83
2021/11/21 01:37:58;;;;;;;29.42;15.57;;;;;;;8.49;100.00;100240.19;4972723;28;20039;-81
2021/11/21 01:40:26;;;;;;;33.05;16.35;;;;;;;8.49;100.00;100241.94;4988339;28;20043;-84
2021/11/21 01:42:53;;;;;;;29.05;15.52;;;;;;;8.48;100.00;100241.09;4975071;28;20051;-81
2021/11/21 01:45:20;;;;;;;32.80;15.40;;;;;;;8.42;100.00;100233.31;4974443;28;20635;-82
2021/11/21 01:47:48;;;;;;;28.98;14.75;;;;;;;8.40;100.00;100228.06;4988586;28;20034;-81
2021/11/21 01:50:23;;;;;;;30.90;17.15;;;;;;;8.42;100.00;100228.94;4973079;28;20550;-80
2021/11/21 01:52:50;;;;;;;29.30;15.30;;;;;;;8.40;100.00;100219.31;4975058;28;20113;-81
2021/11/21 01:55:18;;;;;;;32.42;16.75;;;;;;;8.49;100.00;100210.34;5021933;28;20193;-80
2021/11/21 01:57:49;;;;;;;28.80;16.67;;;;;;;8.44;100.00;100218.34;4963218;28;20050;-80
2021/11/21 02:00:16;;;;;;;31.83;18.23;;;;;;;8.49;100.00;100205.97;4957163;28;20046;-80
2021/11/21 02:02:43;;;;;;;32.35;15.57;;;;;;;8.45;100.00;100202.53;4999147;28;20528;-81
2021/11/21 02:05:11;;;;;;;34.22;15.98;;;;;;;8.42;100.00;100202.59;4956892;28;20047;-81
2021/11/21 02:07:38;;;;;;;31.73;16.33;;;;;;;8.41;100.00;100195.59;4957790;28;20050;-80
2021/11/21 02:10:06;;;;;;;28.80;16.90;;;;;;;8.42;100.00;100192.06;4988820;28;20038;-81
2021/11/21 02:12:33;;;;;;;36.08;18.02;;;;;;;8.43;100.00;100190.31;5005241;28;20461;-81
2021/11/21 02:15:00;;;;;;;32.90;16.98;;;;;;;8.45;100.00;100184.09;4985751;28;20043;-81
2021/11/21 02:17:27;;;;;;;33.20;16.65;;;;;;;8.46;100.00;100187.59;4972471;28;20035;-81
2021/11/21 02:19:54;;;;;;;26.42;14.65;;;;;;;8.41;100.00;100181.56;4968946;28;20050;-81
2021/11/21 02:22:21;;;;;;;33.65;16.40;;;;;;;8.45;100.00;100172.72;4987504;28;20054;-82
2021/11/21 02:24:47;;;;;;;30.30;16.57;;;;;;;8.42;100.00;100183.31;4972914;28;20124;-81
2021/11/21 02:27:17;;;;;;;33.10;18.20;;;;;;;8.40;100.00;100177.19;4954774;28;20054;-80
2021/11/21 02:29:44;;;;;;;34.92;17.05;;;;;;;8.41;100.00;100168.41;4989393;28;20050;-80
2021/11/21 02:32:11;;;;;;;34.72;17.63;;;;;;;8.40;100.00;100174.56;4974165;28;20052;-84
2021/11/21 02:34:37;;;;;;;30.42;15.55;;;;;;;8.38;100.00;100174.59;5005064;28;20050;-80
2021/11/21 02:37:08;;;;;;;31.23;15.57;;;;;;;8.36;100.00;100165.84;4970112;28;20047;-81
2021/11/21 02:39:39;;;;;;;33.08;16.95;;;;;;;8.36;100.00;100157.97;4971115;28;20499;-81
2021/11/21 02:42:06;;;;;;;31.05;15.45;;;;;;;8.38;100.00;100160.56;4973745;28;20135;-80
2021/11/21 02:44:33;;;;;;;30.35;15.02;;;;;;;8.34;100.00;100157.09;4972789;28;20042;-82
2021/11/21 02:47:00;;;;;;;30.77;15.40;;;;;;;8.33;100.00;100162.41;4989763;28;20522;-80
2021/11/21 02:49:27;;;;;;;28.13;14.05;;;;;;;8.33;100.00;100151.88;4969713;28;20042;-83
2021/11/21 02:51:54;;;;;;;28.92;15.80;;;;;;;8.36;100.00;100157.97;4974269;28;20057;-81
2021/11/21 02:54:21;;;;;;;31.65;15.32;;;;;;;8.32;100.00;100150.97;4972560;28;20399;-79
2021/11/21 02:56:47;;;;;;;27.92;15.48;;;;;;;8.30;100.00;100150.13;4970367;28;20043;-82
2021/11/21 02:59:24;;;;;;;25.10;13.68;;;;;;;8.26;100.00;100150.25;5006950;28;20046;-81
2021/11/21 03:01:50;;;;;;;29.63;15.95;;;;;;;8.26;100.00;100144.97;4981902;28;20101;-79
2021/11/21 03:04:21;;;;;;;27.98;14.93;;;;;;;8.28;100.00;100151.94;4983023;28;20114;-80
2021/11/21 03:06:48;;;;;;;27.58;14.32;;;;;;;8.21;100.00;100152.94;4990252;28;20629;-81
2021/11/21 03:09:21;;;;;;;26.35;14.90;;;;;;;8.21;100.00;100149.47;4975270;28;20042;-80
2021/11/21 03:11:52;;;;;;;31.10;17.17;;;;;;;8.22;100.00;100149.41;4992923;28;20504;-84
2021/11/21 03:14:19;;;;;;;32.47;16.98;;;;;;;8.25;100.00;100151.16;4969310;28;20710;-81
2021/11/21 03:16:47;;;;;;;31.83;16.83;;;;;;;8.26;100.00;100137.09;4958847;28;20042;-83
2021/11/21 03:19:14;;;;;;;28.80;15.82;;;;;;;8.17;100.00;100146.03;4963796;28;20046;-80
2021/11/21 03:21:41;;;;;;;30.27;14.85;;;;;;;8.22;100.00;100143.28;4948085;28;20120;-82
2021/11/21 03:24:08;;;;;;;32.17;16.02;;;;;;;8.23;100.00;100137.13;4983853;28;20074;-81
2021/11/21 03:26:35;;;;;;;27.75;15.60;;;;;;;8.20;100.00;100130.16;4997215;28;20054;-84
2021/11/21 03:29:03;;;;;;;31.65;16.08;;;;;;;8.17;100.00;100149.53;4991820;28;20061;-80
2021/11/21 03:31:30;;;;;;;31.95;15.60;;;;;;;8.25;100.00;100153.78;5004076;28;20041;-82
2021/11/21 03:33:56;;;;;;;29.67;15.95;;;;;;;8.20;100.00;100145.97;4998644;28;20419;-83
2021/11/21 03:36:23;;;;;;;31.98;16.48;;;;;;;8.18;100.00;100138.09;4994180;28;20042;-82
2021/11/21 03:38:50;;;;;;;26.55;13.85;;;;;;;8.21;100.00;100139.78;4994973;28;20069;-80
2021/11/21 03:41:16;;;;;;;27.90;14.70;;;;;;;8.16;100.00;100132.00;4999516;28;20046;-83
2021/11/21 03:43:43;;;;;;;29.48;14.43;;;;;;;8.16;100.00;100121.47;5001086;28;20053;-84
2021/11/21 03:46:10;;;;;;;31.42;14.85;;;;;;;8.11;100.00;100132.97;5033356;28;20495;-83
2021/11/21 03:48:37;;;;;;;28.08;15.07;;;;;;;8.10;100.00;100131.25;4999661;28;20030;-81
2021/11/21 03:51:03;;;;;;;30.60;14.45;;;;;;;8.11;100.00;100133.84;5015379;28;20048;-81
2021/11/21 03:53:30;;;;;;;29.10;15.05;;;;;;;8.10;100.00;100128.63;4986627;28;20034;-83
2021/11/21 03:55:57;;;;;;;25.02;14.93;;;;;;;8.06;100.00;100129.56;5043790;28;20030;-83
2021/11/21 03:58:24;;;;;;;31.30;16.38;;;;;;;8.14;100.00;100128.50;4996862;28;20039;-84
2021/11/21 04:00:51;;;;;;;31.77;16.10;;;;;;;8.16;100.00;100131.13;5033629;28;20048;-83
2021/11/21 04:03:18;;;;;;;31.08;15.98;;;;;;;8.12;100.00;100130.31;5013096;28;20051;-84
2021/11/21 04:05:45;;;;;;;29.57;16.47;;;;;;;8.08;100.00;100118.13;5018899;28;20045;-82
2021/11/21 04:08:12;;;;;;;34.77;16.70;;;;;;;8.08;100.00;100127.78;4993269;28;20026;-84
2021/11/21 04:10:39;;;;;;;29.88;16.00;;;;;;;8.10;100.00;100110.19;5017464;28;20048;-84
2021/11/21 04:13:06;;;;;;;28.63;15.10;;;;;;;8.04;100.00;100105.06;5017409;28;20089;-84
2021/11/21 04:15:33;;;;;;;34.87;16.10;;;;;;;8.05;100.00;100114.66;5000091;28;20048;-84
2021/11/21 04:18:00;;;;;;;31.20;15.80;;;;;;;8.06;100.00;100103.25;5011039;28;20029;-84
2021/11/21 04:20:26;;;;;;;27.98;14.82;;;;;;;8.04;100.00;100094.53;5013588;28;20042;-84
2021/11/21 04:22:53;;;;;;;32.77;16.13;;;;;;;8.02;100.00;100094.56;4979993;28;20046;-84
2021/11/21 04:25:20;;;;;;;29.33;15.13;;;;;;;8.03;100.00;100090.16;5032864;28;20221;-84
2021/11/21 04:27:47;;;;;;;30.23;16.48;;;;;;;8.02;100.00;100096.31;5031353;28;20026;-82
2021/11/21 04:30:14;;;;;;;31.05;15.40;;;;;;;7.96;100.00;100083.28;5024707;28;20066;-82
2021/11/21 04:32:43;;;;;;;34.17;15.80;;;;;;;7.99;100.00;100085.84;5012559;28;20037;-83
2021/11/21 04:35:12;;;;;;;29.52;14.25;;;;;;;8.02;100.00;100084.03;4993516;28;20053;-82
2021/11/21 04:37:39;;;;;;;27.17;15.15;;;;;;;7.98;100.00;100084.97;5016187;28;20078;-81
2021/11/21 04:40:07;;;;;;;28.85;15.63;;;;;;;7.99;100.00;100081.47;4990711;28;20039;-82
2021/11/21 04:42:34;;;;;;;28.60;15.07;;;;;;;8.00;100.00;100079.72;4994481;28;20142;-82
2021/11/21 04:45:03;;;;;;;29.73;15.25;;;;;;;7.99;100.00;100070.97;4947252;28;20046;-83
2021/11/21 04:47:30;;;;;;;26.80;13.00;;;;;;;8.00;100.00;100070.06;4995323;28;20053;-81
2021/11/21 04:49:57;;;;;;;23.90;12.73;;;;;;;8.05;100.00;100062.91;4971893;28;20077;-81
2021/11/21 04:52:24;;;;;;;26.50;14.17;;;;;;;7.97;100.00;100061.34;5001166;28;20045;-81
2021/11/21 04:54:51;;;;;;;25.83;13.30;;;;;;;7.96;100.00;100063.09;4978293;28;20500;-80
2021/11/21 04:57:18;;;;;;;26.93;14.63;;;;;;;7.93;100.00;100063.19;4989307;28;20038;-81
2021/11/21 04:59:45;;;;;;;26.93;13.60;;;;;;;7.96;100.00;100056.97;4981994;28;20055;-82
2021/11/21 05:02:13;;;;;;;31.00;15.27;;;;;;;7.98;100.00;100057.81;5004551;28;20589;-80
2021/11/21 05:04:40;;;;;;;30.60;15.57;;;;;;;7.98;100.00;100052.53;4988424;28;20047;-82
2021/11/21 05:07:07;;;;;;;29.30;13.90;;;;;;;7.95;100.00;100048.22;5013341;28;20108;-81
2021/11/21 05:09:34;;;;;;;30.27;15.30;;;;;;;7.93;100.00;100049.16;4985133;28;20050;-81
2021/11/21 05:12:00;;;;;;;28.73;13.07;;;;;;;7.94;100.00;100043.88;4978419;28;20054;-81
2021/11/21 05:14:28;;;;;;;29.02;14.52;;;;;;;7.95;100.00;100034.22;4972595;28;20061;-82
2021/11/21 05:16:55;;;;;;;25.98;13.20;;;;;;;7.97;100.00;100040.28;4987100;28;20113;-82
2021/11/21 05:19:22;;;;;;;28.60;14.00;;;;;;;7.96;100.00;100031.53;4980190;28;20038;-80
2021/11/21 05:21:49;;;;;;;26.33;13.43;;;;;;;7.94;100.00;100029.84;4996323;28;20457;-80
2021/11/21 05:24:23;;;;;;;26.63;13.93;;;;;;;7.90;100.00;100019.41;4985893;28;20043;-80
2021/11/21 05:26:51;;;;;;;27.45;14.27;;;;;;;7.90;100.00;100026.38;4989495;28;20503;-80
2021/11/21 05:29:19;;;;;;;24.88;14.25;;;;;;;7.90;100.00;100024.66;4972593;28;20608;-81
2021/11/21 05:31:46;;;;;;;29.83;15.47;;;;;;;7.87;100.00;100018.56;4987244;28;20049;-80
2021/11/21 05:34:14;;;;;;;26.55;14.40;;;;;;;7.92;100.00;100021.13;5004403;28;20046;-80
2021/11/21 05:36:43;;;;;;;25.67;13.77;;;;;;;7.90;100.00;100016.78;5000597;28;20061;-82
2021/11/21 05:39:11;;;;;;;26.30;13.38;;;;;;;7.82;100.00;100023.94;4979991;28;20041;-81
2021/11/21 05:41:37;;;;;;;27.25;14.48;;;;;;;7.89;100.00;100014.13;4997820;28;20050;-81
2021/11/21 05:44:04;;;;;;;30.58;15.35;;;;;;;7.91;100.00;100012.38;5007971;28;20041;-82
2021/11/21 05:46:31;;;;;;;29.17;15.05;;;;;;;7.86;100.00;100017.72;5001737;28;20415;-82
2021/11/21 05:48:58;;;;;;;28.70;14.63;;;;;;;7.83;100.00;100027.44;4973327;28;20046;-81
2021/11/21 05:51:24;;;;;;;29.40;15.23;;;;;;;7.82;100.00;100031.84;4998612;28;20053;-82
2021/11/21 05:53:52;;;;;;;26.08;14.05;;;;;;;7.79;100.00;100023.13;4978981;28;20043;-83
2021/11/21 05:56:20;;;;;;;25.38;13.40;;;;;;;7.79;100.00;100018.72;5000581;28;20438;-83
2021/11/21 05:58:47;;;;;;;31.33;16.13;;;;;;;7.85;100.00;100021.25;5005957;28;20038;-81
2021/11/21 06:01:15;;;;;;;27.98;14.45;;;;;;;7.86;100.00;100015.09;5000827;28;20043;-82
2021/11/21 06:03:41;;;;;;;29.97;14.67;;;;;;;7.87;100.00;100016.81;5014208;28;20058;-83
2021/11/21 06:06:08;;;;;;;32.17;16.55;;;;;;;7.89;100.00;100015.00;5011279;28;20046;-82
2021/11/21 06:08:35;;;;;;;32.58;15.88;;;;;;;7.78;100.00;100016.13;5003924;28;20046;-83
2021/11/21 06:11:02;;;;;;;27.30;15.13;;;;;;;7.80;100.00;100015.19;4972208;28;20821;-81
2021/11/21 06:13:29;;;;;;;27.37;15.00;;;;;;;7.83;100.00;100020.41;5005353;28;20050;-84
2021/11/21 06:15:55;;;;;;;35.22;15.90;;;;;;;7.83;100.00;100017.78;4988994;28;20042;-82
2021/11/21 06:18:22;;;;;;;29.90;15.82;;;;;;;7.77;100.00;100015.25;4983560;28;20042;-83
2021/11/21 06:20:49;;;;;;;32.63;15.17;;;;;;;7.77;100.00;100017.03;4994576;28;20116;-85
2021/11/21 06:23:16;;;;;;;29.40;15.83;;;;;;;7.83;100.00;100017.78;4974232;28;20101;-82
2021/11/21 06:25:42;;;;;;;30.83;14.88;;;;;;;7.86;100.00;100009.81;4954737;28;20043;-82
2021/11/21 06:28:10;;;;;;;33.28;15.13;;;;;;;7.83;100.00;100017.78;4966593;28;20127;-83
2021/11/21 06:30:39;;;;;;;27.33;14.73;;;;;;;7.77;100.00;100023.16;4966269;28;20140;-83
2021/11/21 06:33:06;;;;;;;27.57;15.57;;;;;;;7.76;100.00;100020.56;4971151;28;20042;-83
2021/11/21 06:35:33;;;;;;;33.90;16.17;;;;;;;7.73;100.00;100023.22;4983762;28;20053;-83
2021/11/21 06:38:00;;;;;;;33.03;16.05;;;;;;;7.77;100.00;100014.41;4992915;28;20066;-82
2021/11/21 06:40:27;;;;;;;33.25;15.63;;;;;;;7.68;100.00;100018.06;5004350;28;20049;-83
2021/11/21 06:42:54;;;;;;;36.80;17.27;;;;;;;7.74;100.00;100019.72;4989421;28;20050;-83
2021/11/21 06:45:21;;;;;;;36.33;16.97;;;;;;;7.69;100.00;100032.94;5000895;28;20077;-84
2021/11/21 06:47:50;;;;;;;33.15;16.73;;;;;;;7.73;100.00;100031.97;4978426;28;20682;-79
2021/11/21 06:50:17;;;;;;;38.87;18.80;;;;;;;7.75;100.00;100032.84;4957314;28;20053;-86
2021/11/21 06:52:44;;;;;;;36.00;16.23;;;;;;;7.75;100.00;100027.56;4974243;28;20067;-83
2021/11/21 06:55:12;;;;;;;34.17;17.23;;;;;;;7.76;100.00;100031.06;4980070;28;20559;-82
2021/11/21 06:57:39;;;;;;;33.80;16.30;;;;;;;7.75;100.00;100034.59;4990201;28;20538;-82
2021/11/21 07:00:08;;;;;;;34.33;17.53;;;;;;;7.81;100.00;100031.84;4990096;28;20046;-82
2021/11/21 07:02:35;;;;;;;38.87;18.30;;;;;;;7.75;100.00;100035.47;4943356;28;20085;-81
2021/11/21 07:05:03;;;;;;;35.37;17.37;;;;;;;7.75;100.00;100039.88;4939800;28;20550;-81
2021/11/21 07:07:29;;;;;;;32.53;15.97;;;;;;;7.74;100.00;100038.13;4999858;28;20049;-82
2021/11/21 07:09:56;;;;;;;52.13;28.03;;;;;;;7.71;100.00;100041.66;4988417;28;20097;-82
2021/11/21 07:12:23;;;;;;;37.63;17.77;;;;;;;7.69;100.00;100035.56;4973066;28;22021;-84
2021/11/21 07:15:11;;;;;;;33.77;17.47;;;;;;;7.75;100.00;100030.22;4997855;28;20054;-83
2021/11/21 07:17:37;;;;;;;38.72;19.42;;;;;;;7.76;100.00;100028.44;4988004;28;20097;-81
2021/11/21 07:20:05;;;;;;;35.00;20.38;;;;;;;7.80;100.00;100030.97;4969977;28;20065;-82
2021/11/21 07:22:32;;;;;;;36.27;18.57;;;;;;;7.75;100.00;100029.34;4977580;28;21953;-83
2021/11/21 07:25:00;;;;;;;35.00;17.27;;;;;;;7.72;100.00;100038.13;4980736;28;20124;-83
2021/11/21 07:27:27;;;;;;;36.57;18.27;;;;;;;7.71;100.00;100033.78;4972606;28;20069;-82
2021/11/21 07:29:53;;;;;;;32.70;16.90;;;;;;;7.74;100.00;100038.13;5002639;28;20038;-82
2021/11/21 07:32:20;;;;;;;35.80;17.63;;;;;;;7.75;100.00;100035.47;5001974;28;20042;-83
2021/11/21 07:34:47;;;;;;;36.27;18.73;;;;;;;7.76;100.00;100041.59;4989186;28;20077;-83
2021/11/21 07:37:14;;;;;;;31.77;16.67;;;;;;;7.72;100.00;100045.16;4971273;28;20043;-82
2021/11/21 07:39:41;;;;;;;40.58;20.27;;;;;;;7.75;100.00;100047.75;4971781;28;20419;-81
2021/11/21 07:42:07;;;;;;;40.60;20.17;;;;;;;7.71;100.00;100046.91;5005825;28;20053;-82
2021/11/21 07:44:34;;;;;;;38.30;19.17;;;;;;;7.75;100.00;100048.63;4952656;28;20499;-82
2021/11/21 07:47:01;;;;;;;39.00;19.50;;;;;;;7.71;100.00;100052.19;5002823;28;20534;-81
2021/11/21 07:49:31;;;;;;;36.93;18.97;;;;;;;7.72;100.00;100051.28;4978714;28;20125;-82
2021/11/21 07:51:58;;;;;;;32.97;17.90;;;;;;;7.74;100.00;100044.25;5002821;28;20089;-84
2021/11/21 07:54:25;;;;;;;35.07;17.00;;;;;;;7.75;100.00;100050.38;4987999;28;20136;-81
2021/11/21 07:56:52;;;;;;;36.80;17.77;;;;;;;7.83;100.00;100049.34;4989628;28;20077;-84
2021/11/21 07:59:19;;;;;;;37.55;19.33;;;;;;;7.80;100.00;100048.50;4940193;28;20045;-81
2021/11/21 08:01:47;;;;;;;37.73;19.17;;;;;;;7.78;100.00;100045.91;4999549;28;20053;-80
2021/11/21 08:04:14;;;;;;;35.77;18.43;;;;;;;7.77;100.00;100048.56;4987913;28;20125;-82
2021/11/21 08:06:41;;;;;;;37.50;20.20;;;;;;;7.79;100.00;100047.66;4972702;28;20145;-82
2021/11/21 08:09:08;;;;;;;35.70;17.63;;;;;;;7.74;100.00;100059.16;4958914;28;20041;-81
2021/11/21 08:11:36;;;;;;;37.40;19.07;;;;;;;7.75;100.00;100067.03;4988509;28;20130;-81
2021/11/21 08:14:02;;;;;;;36.43;17.90;;;;;;;7.72;100.00;100072.31;5004720;28;20411;-85
2021/11/21 08:16:30;;;;;;;33.60;18.52;;;;;;;7.75;100.00;100066.16;4980508;28;20038;-81
2021/11/21 08:18:56;;;;;;;34.77;18.00;;;;;;;7.74;100.00;100070.56;4986288;28;20061;-85
2021/11/21 08:21:23;;;;;;;37.03;19.93;;;;;;;7.75;100.00;100068.78;5009948;28;20062;-81
2021/11/21 08:23:50;;;;;;;35.83;17.40;;;;;;;7.80;100.00;100066.91;4981114;28;20050;-81
2021/11/21 08:26:17;;;;;;;34.73;16.23;;;;;;;7.74;100.00;100074.94;4994793;28;20089;-83
2021/11/21 08:28:44;;;;;;;37.10;17.17;;;;;;;7.74;100.00;100074.94;5005025;28;20454;-81
2021/11/21 08:31:13;;;;;;;34.03;19.13;;;;;;;7.79;100.00;100076.56;5007235;28;20066;-83
2021/11/21 08:33:39;;;;;;;39.03;18.30;;;;;;;7.79;100.00;100084.47;4962549;28;20042;-84
2021/11/21 08:36:06;;;;;;;37.60;18.67;;;;;;;7.78;100.00;100080.09;4963917;28;20047;-83
2021/11/21 08:38:33;;;;;;;33.05;15.85;;;;;;;7.80;100.00;100085.31;4991480;28;20097;-85
2021/11/21 08:41:02;;;;;;;35.50;16.65;;;;;;;7.89;100.00;100075.50;4978253;28;20046;-82
2021/11/21 08:43:29;;;;;;;36.17;18.38;;;;;;;7.82;100.00;100084.44;4976491;28;20522;-83
2021/11/21 08:45:56;;;;;;;41.22;20.45;;;;;;;7.79;100.00;100076.56;4984772;28;20108;-83
2021/11/21 08:48:23;;;;;;;34.53;18.97;;;;;;;7.66;100.00;100076.84;5007955;28;20046;-83
2021/11/21 08:50:50;;;;;;;37.60;19.47;;;;;;;7.74;100.00;100074.94;4963519;28;20057;-83
2021/11/21 08:53:17;;;;;;;33.37;18.60;;;;;;;7.73;100.00;100079.31;5004266;28;20113;-83
2021/11/21 08:55:44;;;;;;;31.93;16.80;;;;;;;7.75;100.00;100080.16;4980284;28;20088;-82
2021/11/21 08:58:11;;;;;;;31.00;15.17;;;;;;;7.74;100.00;100073.19;4977638;28;20508;-86
2021/11/21 09:00:38;;;;;;;33.10;17.10;;;;;;;7.79;100.00;100071.31;5003238;28;20051;-85
2021/11/21 09:03:05;;;;;;;32.67;19.30;;;;;;;7.84;100.00;100074.75;4987688;28;20065;-84
2021/11/21 09:05:32;;;;;;;38.50;21.42;;;;;;;7.80;100.00;100075.66;4973033;28;20827;-85
2021/11/21 09:08:12;;;;;;;32.23;15.80;;;;;;;7.86;100.00;100083.47;4973352;28;20504;-85
2021/11/21 09:10:40;;;;;;;31.70;15.70;;;;;;;7.82;100.00;100073.91;4996376;28;20133;-84
2021/11/21 09:13:07;;;;;;;31.83;17.00;;;;;;;7.83;100.00;100078.28;4977746;28;20038;-85
2021/11/21 09:15:33;;;;;;;30.08;16.88;;;;;;;7.86;100.00;100079.97;4994912;28;20612;-84
2021/11/21 09:18:00;;;;;;;30.60;15.10;;;;;;;7.85;100.00;100092.25;4978671;28;20039;-84
2021/11/21 09:20:27;;;;;;;26.90;14.97;;;;;;;7.84;100.00;100085.25;4990364;28;20562;-83
2021/11/21 09:22:55;;;;;;;31.77;17.20;;;;;;;7.92;100.00;100086.88;4975051;28;20130;-87
2021/11/21 09:25:24;;;;;;;29.33;16.53;;;;;;;7.93;100.00;100102.63;4942241;28;20134;-83
2021/11/21 09:27:51;;;;;;;26.73;14.40;;;;;;;7.92;100.00;100089.50;4974838;28;20534;-86
2021/11/21 09:30:19;;;;;;;26.67;13.63;;;;;;;7.93;100.00;100075.47;4957734;28;20126;-84
2021/11/21 09:32:46;;;;;;;26.30;13.93;;;;;;;8.02;100.00;100080.53;4993809;28;20038;-84
2021/11/21 09:35:13;;;;;;;26.27;14.27;;;;;;;8.03;100.00;100082.28;4989213;28;20153;-85
2021/11/21 09:37:40;;;;;;;32.73;16.87;;;;;;;8.10;100.00;100083.88;4991104;28;20062;-84
2021/11/21 09:40:09;;;;;;;25.20;14.18;;;;;;;8.18;100.00;100087.25;4976026;28;20587;-82
2021/11/21 09:42:37;;;;;;;25.95;14.20;;;;;;;8.23;100.00;100079.22;4990500;28;20047;-84
2021/11/21 09:45:12;;;;;;;26.52;14.82;;;;;;;8.32;100.00;100079.91;4975013;28;20086;-83
2021/11/21 09:47:39;;;;;;;23.60;14.07;;;;;;;8.43;100.00;100080.59;4971376;28;20054;-85
2021/11/21 09:50:11;;;;;;;22.85;12.75;;;;;;;8.36;100.00;100079.00;4991334;28;20142;-83
2021/11/21 09:52:38;;;;;;;26.45;13.73;;;;;;;8.48;100.00;100080.50;4975287;28;20070;-85
2021/11/21 09:55:08;;;;;;;25.60;13.55;;;;;;;8.55;100.00;100078.59;4969603;28;20050;-84
2021/11/21 09:57:40;;;;;;;24.15;12.77;;;;;;;8.56;100.00;100073.31;4987293;28;20043;-83
2021/11/21 10:00:16;;;;;;;26.55;13.88;;;;;;;8.65;100.00;100077.50;4977687;28;20472;-85
2021/11/21 10:02:48;;;;;;;23.88;13.40;;;;;;;8.64;100.00;100075.78;4957557;28;20046;-83
2021/11/21 10:05:24;;;;;;;26.42;13.45;;;;;;;8.72;100.00;100079.09;5000592;28;20042;-83
2021/11/21 10:08:11;;;;;;;23.38;12.25;;;;;;;8.75;100.00;100073.78;4955844;28;20038;-82
2021/11/21 10:11:01;;;;;;;24.50;14.18;;;;;;;8.83;100.00;100074.47;5017886;28;20047;-83
2021/11/21 10:13:37;;;;;;;27.35;13.40;;;;;;;8.84;100.00;100081.47;4998394;28;20092;-84
2021/11/21 10:16:16;;;;;;;24.60;13.43;;;;;;;8.90;100.00;100072.56;5016114;23;20061;-85
2021/11/21 10:18:54;;;;;;;20.60;11.82;;;;;;;8.91;100.00;100071.66;5025122;28;20497;-85
2021/11/21 10:21:24;;;;;;;22.50;12.20;;;;;;;9.05;100.00;100066.94;4931530;28;20046;-84
2021/11/21 10:24:12;;;;;;;18.83;10.82;;;;;;;9.01;100.00;100076.69;5009557;28;20051;-84
2021/11/21 10:26:39;;;;;;;19.08;10.85;;;;;;;8.99;100.00;100074.97;5014581;28;20461;-83
2021/11/21 10:29:29;;;;;;;21.80;11.90;;;;;;;9.01;100.00;100067.91;4994273;28;20076;-87
2021/11/21 10:31:57;;;;;;;17.80;9.43;;;;;;;9.03;100.00;100072.25;5025722;28;20041;-88
2021/11/21 10:34:24;;;;;;;20.38;11.15;;;;;;;9.10;100.00;100074.75;5013239;28;20051;-85
2021/11/21 10:36:51;;;;;;;18.98;10.93;;;;;;;9.10;100.00;100070.34;5016207;28;20041;-84
2021/11/21 10:39:25;;;;;;;16.38;9.65;;;;;;;9.09;100.00;100073.88;5019086;28;20033;-84
2021/11/21 10:41:54;;;;;;;18.27;9.60;;;;;;;9.18;100.00;100068.38;5000506;28;20046;-84
2021/11/21 10:44:21;;;;;;;16.55;8.77;;;;;;;9.21;100.00;100070.94;5014879;28;20045;-84
2021/11/21 10:46:53;;;;;;;16.92;10.05;;;;;;;9.27;100.00;100072.56;5016044;28;20577;-85
2021/11/21 10:49:34;;;;;;;15.07;8.48;;;;;;;9.30;100.00;100075.97;5014185;28;20106;-84
2021/11/21 10:52:08;;;;;;;16.98;9.32;;;;;;;9.28;100.00;100069.03;5012527;28;20042;-84
2021/11/21 10:54:41;;;;;;;15.63;9.55;;;;;;;9.29;100.00;100062.84;4994085;28;20053;-85
2021/11/21 10:57:12;;;;;;;17.65;9.07;;;;;;;9.35;100.00;100073.25;4996854;28;20052;-83
2021/11/21 10:59:47;;;;;;;15.65;8.60;;;;;;;9.39;100.00;100079.28;5011297;28;20129;-83
2021/11/21 11:02:27;;;;;;;15.30;8.73;;;;;;;9.40;100.00;100076.59;5014014;28;20059;-84
2021/11/21 11:04:59;;;;;;;14.80;9.15;;;;;;;9.40;100.00;100078.38;5028148;28;20039;-83
2021/11/21 11:07:26;;;;;;;14.75;9.20;;;;;;;9.41;100.00;100074.84;4916571;28;20049;-89
2021/11/21 11:09:54;;;;;;;16.38;8.77;;;;;;;9.38;100.00;100078.44;5031651;28;20026;-84
2021/11/21 11:12:22;;;;;;;12.40;7.72;;;;;;;9.45;100.00;100076.50;5033989;28;20048;-85
2021/11/21 11:14:50;;;;;;;13.30;8.18;;;;;;;9.46;100.00;100080.88;5001466;28;20505;-85